createdAt,value
2023-02-20T00:07:17.097Z,604.00
2023-02-20T00:08:17.066Z,606.00
2023-02-20T00:09:17.034Z,606.00
2023-02-20T00:10:17.009Z,599.00
2023-02-20T00:11:16.977Z,604.00
2023-02-20T00:12:16.937Z,608.00
2023-02-20T00:13:16.913Z,602.00
2023-02-20T00:14:16.886Z,605.00
2023-02-20T00:15:16.935Z,602.00
2023-02-20T00:17:16.812Z,605.00
2023-02-20T00:18:16.799Z,602.00
2023-02-20T00:19:16.762Z,603.00
2023-02-20T00:20:16.749Z,599.00
2023-02-20T00:21:16.710Z,604.00
2023-02-20T00:22:16.698Z,606.00
2023-02-20T00:23:16.786Z,596.00
2023-02-20T00:24:16.953Z,600.00
2023-02-20T00:25:16.620Z,601.00
2023-02-20T00:26:16.602Z,604.00
2023-02-20T00:27:16.566Z,598.00
2023-02-20T00:28:16.542Z,596.00
2023-02-20T00:29:16.513Z,601.00
2023-02-20T00:30:16.612Z,600.00
2023-02-20T00:31:16.556Z,603.00
2023-02-20T00:32:16.694Z,599.00
2023-02-20T00:33:16.662Z,598.00
2023-02-20T00:34:16.390Z,597.00
2023-02-20T00:35:16.370Z,597.00
2023-02-20T00:36:16.337Z,602.00
2023-02-20T00:37:16.322Z,602.00
2023-02-20T00:38:16.277Z,601.00
2023-02-20T00:39:16.247Z,603.00
2023-02-20T00:40:16.210Z,600.00
2023-02-20T00:41:16.181Z,597.00
2023-02-20T00:42:16.148Z,601.00
2023-02-20T00:43:16.114Z,598.00
2023-02-20T00:44:16.077Z,599.00
2023-02-20T00:45:16.042Z,595.00
2023-02-20T00:46:16.375Z,597.00
2023-02-20T00:47:15.985Z,598.00
2023-02-20T00:48:15.980Z,597.00
2023-02-20T00:49:15.921Z,596.00
2023-02-20T00:50:15.893Z,597.00
2023-02-20T00:51:15.859Z,601.00
2023-02-20T00:52:15.834Z,594.00
2023-02-20T00:53:15.801Z,599.00
2023-02-20T00:54:15.773Z,601.00
2023-02-20T00:55:15.744Z,599.00
2023-02-20T00:56:15.721Z,599.00
2023-02-20T00:57:15.686Z,594.00
2023-02-20T00:58:15.660Z,597.00
2023-02-20T00:59:15.625Z,596.00
2023-02-20T01:00:15.599Z,597.00
2023-02-20T01:01:15.610Z,598.00
2023-02-20T01:02:15.556Z,599.00
2023-02-20T01:03:15.523Z,600.00
2023-02-20T01:04:15.485Z,596.00
2023-02-20T01:05:15.451Z,596.00
2023-02-20T01:06:15.417Z,599.00
2023-02-20T01:07:15.392Z,597.00
2023-02-20T01:08:15.362Z,598.00
2023-02-20T01:09:15.334Z,593.00
2023-02-20T01:10:15.292Z,595.00
2023-02-20T01:11:15.261Z,594.00
2023-02-20T02:50:12.502Z,588.00
2023-02-20T02:51:12.493Z,586.00
2023-02-20T02:52:12.432Z,585.00
2023-02-20T02:53:12.413Z,585.00
2023-02-20T02:54:12.384Z,586.00
2023-02-20T02:55:12.380Z,587.00
2023-02-20T02:56:12.636Z,589.00
2023-02-20T02:57:12.298Z,593.00
2023-02-20T02:58:12.262Z,588.00
2023-02-20T02:59:12.232Z,586.00
2023-02-20T03:00:12.220Z,590.00
2023-02-20T03:01:12.205Z,582.00
2023-02-20T03:02:12.173Z,586.00
2023-02-20T03:03:12.199Z,586.00
2023-02-20T03:04:12.106Z,586.00
2023-02-20T03:05:12.078Z,586.00
2023-02-20T03:06:12.512Z,585.00
2023-02-20T03:07:12.027Z,585.00
2023-02-20T03:08:11.980Z,590.00
2023-02-20T03:09:11.951Z,587.00
2023-02-20T03:10:11.940Z,589.00
2023-02-20T03:11:11.901Z,591.00
2023-02-20T03:12:11.873Z,587.00
2023-02-20T03:13:11.844Z,589.00
2023-02-20T03:14:11.811Z,583.00
2023-02-20T03:15:11.781Z,587.00
2023-02-20T03:16:12.079Z,582.00
2023-02-20T03:17:11.731Z,587.00
2023-02-20T03:18:11.730Z,581.00
2023-02-20T03:19:11.678Z,584.00
2023-02-20T03:20:11.656Z,586.00
2023-02-20T03:21:11.634Z,586.00
2023-02-20T03:22:11.593Z,590.00
2023-02-20T03:23:11.564Z,584.00
2023-02-20T03:24:11.527Z,588.00
2023-02-20T03:25:11.515Z,584.00
2023-02-20T03:26:11.785Z,586.00
2023-02-20T03:27:11.451Z,585.00
2023-02-20T03:28:11.448Z,583.00
2023-02-20T03:29:11.399Z,587.00
2023-02-20T03:30:11.389Z,578.00
2023-02-20T03:31:11.364Z,578.00
2023-02-20T03:32:11.382Z,584.00
2023-02-20T03:33:11.301Z,585.00
2023-02-20T03:34:11.289Z,582.00
2023-02-20T03:35:11.271Z,581.00
2023-02-20T03:36:11.470Z,584.00
2023-02-20T03:37:11.198Z,580.00
2023-02-20T03:38:11.181Z,584.00
2023-02-20T03:39:11.159Z,582.00
2023-02-20T03:40:11.125Z,585.00
2023-02-20T03:41:11.102Z,580.00
2023-02-20T03:42:11.070Z,578.00
2023-02-20T03:43:11.038Z,579.00
2023-02-20T03:44:11.009Z,581.00
2023-02-20T04:26:10.237Z,577.00
2023-02-20T04:27:10.022Z,577.00
2023-02-20T04:28:10.000Z,570.00
2023-02-20T04:29:09.977Z,575.00
2023-02-20T04:30:09.974Z,577.00
2023-02-20T04:31:09.949Z,572.00
2023-02-20T04:32:09.903Z,575.00
2023-02-20T04:33:09.885Z,575.00
2023-02-20T04:34:09.860Z,576.00
2023-02-20T04:35:09.843Z,576.00
2023-02-20T04:36:09.938Z,576.00
2023-02-20T04:37:09.794Z,576.00
2023-02-20T04:38:09.761Z,579.00
2023-02-20T04:39:09.755Z,577.00
2023-02-20T04:40:09.742Z,579.00
2023-02-20T04:41:09.715Z,579.00
2023-02-20T04:42:09.707Z,575.00
2023-02-20T04:43:09.669Z,574.00
2023-02-20T04:44:09.646Z,571.00
2023-02-20T04:45:09.624Z,575.00
2023-02-20T04:46:09.644Z,575.00
2023-02-20T04:47:09.570Z,574.00
2023-02-20T04:48:09.538Z,573.00
2023-02-20T04:49:09.486Z,577.00
2023-02-20T04:50:09.412Z,571.00
2023-02-20T04:51:09.387Z,577.00
2023-02-20T04:52:09.336Z,575.00
2023-02-20T04:53:09.286Z,577.00
2023-02-20T04:54:09.280Z,571.00
2023-02-20T04:55:09.221Z,575.00
2023-02-20T04:56:09.163Z,573.00
2023-02-20T04:57:09.147Z,574.00
2023-02-20T04:58:09.116Z,572.00
2023-02-20T04:59:09.089Z,575.00
2023-02-20T05:00:09.075Z,572.00
2023-02-20T05:01:09.059Z,573.00
2023-02-20T05:02:10.287Z,570.00
2023-02-20T05:03:08.958Z,571.00
2023-02-20T05:04:08.933Z,568.00
2023-02-20T05:05:08.905Z,576.00
2023-02-20T05:06:08.892Z,576.00
2023-02-20T05:07:08.846Z,572.00
2023-02-20T05:08:08.814Z,571.00
2023-02-20T05:09:08.764Z,572.00
2023-02-20T05:10:08.743Z,569.00
2023-02-20T05:11:08.772Z,576.00
2023-02-20T05:12:08.707Z,566.00
2023-02-20T05:13:08.684Z,568.00
2023-02-20T05:14:08.654Z,569.00
2023-02-20T05:15:08.638Z,573.00
2023-02-20T05:16:08.640Z,572.00
2023-02-20T05:17:08.571Z,569.00
2023-02-20T05:18:08.547Z,573.00
2023-02-20T05:19:08.527Z,571.00
2023-02-20T05:20:08.506Z,568.00
2023-02-20T05:21:08.502Z,570.00
2023-02-20T05:22:08.494Z,571.00
2023-02-20T05:23:08.472Z,573.00
2023-02-20T05:24:09.676Z,568.00
2023-02-20T05:25:08.431Z,572.00
2023-02-20T05:26:08.430Z,571.00
2023-02-20T05:27:08.392Z,565.00
2023-02-20T05:28:08.377Z,573.00
2023-02-20T05:29:08.361Z,567.00
2023-02-20T05:30:08.385Z,572.00
2023-02-20T05:31:08.420Z,569.00
2023-02-20T05:32:08.332Z,567.00
2023-02-20T05:33:08.292Z,571.00
2023-02-20T05:34:08.276Z,570.00
2023-02-20T05:35:08.270Z,564.00
2023-02-20T05:36:08.249Z,567.00
2023-02-20T05:37:08.231Z,566.00
2023-02-20T05:38:08.210Z,564.00
2023-02-20T05:39:08.200Z,566.00
2023-02-20T05:40:08.189Z,571.00
2023-02-20T05:41:08.175Z,564.00
2023-02-20T05:42:08.156Z,566.00
2023-02-20T05:43:08.135Z,567.00
2023-02-20T05:44:08.112Z,567.00
2023-02-20T05:45:08.094Z,566.00
2023-02-20T05:46:08.221Z,566.00
2023-02-20T05:47:08.065Z,566.00
2023-02-20T05:48:08.048Z,561.00
2023-02-20T05:49:08.039Z,559.00
2023-02-20T05:50:08.038Z,564.00
2023-02-20T05:51:07.999Z,566.00
2023-02-20T05:52:07.978Z,565.00
2023-02-20T05:53:07.954Z,567.00
2023-02-20T05:54:07.936Z,566.00
2023-02-20T05:55:07.922Z,562.00
2023-02-20T05:56:07.901Z,563.00
2023-02-20T05:57:07.891Z,566.00
2023-02-20T05:58:07.872Z,566.00
2023-02-20T05:59:07.856Z,562.00
2023-02-20T06:00:07.832Z,566.00
2023-02-20T06:01:07.811Z,561.00
2023-02-20T07:27:06.233Z,464.00
2023-02-20T08:59:00.244Z,1320.00
2023-02-20T09:33:57.043Z,1295.00
2023-02-20T09:37:56.649Z,1306.00
2023-02-20T09:38:56.553Z,1293.00
2023-02-20T09:39:56.468Z,1302.00
2023-02-20T09:40:56.355Z,1291.00
2023-02-20T09:41:56.272Z,1298.00
2023-02-20T10:24:04.832Z,1191.00
2023-02-20T10:29:52.822Z,1181.00
2023-02-20T10:30:51.867Z,1187.00
2023-02-20T10:31:51.892Z,1180.00
2023-02-20T10:33:51.546Z,1180.00
2023-02-20T10:34:52.237Z,1173.00
2023-02-20T10:35:51.365Z,1175.00
2023-02-20T10:36:51.243Z,1182.00
2023-02-20T10:37:51.166Z,1186.00
2023-02-20T10:38:51.044Z,1182.00
2023-02-20T10:39:50.943Z,1190.00
2023-02-20T10:40:50.837Z,1190.00
2023-02-20T10:41:50.726Z,1185.00
2023-02-20T10:42:50.625Z,1187.00
2023-02-20T10:43:50.526Z,1177.00
2023-02-20T10:44:52.340Z,1181.00
2023-02-20T10:45:50.336Z,1181.00
2023-02-20T10:46:50.786Z,1179.00
2023-02-20T10:47:50.127Z,1181.00
2023-02-20T10:48:50.030Z,1173.00
2023-02-20T10:49:49.917Z,1172.00
2023-02-20T10:50:49.824Z,1179.00
2023-02-20T10:51:49.739Z,1167.00
2023-02-20T10:52:49.673Z,1161.00
2023-02-20T10:53:49.605Z,1155.00
2023-02-20T10:54:51.329Z,1163.00
2023-02-20T10:55:49.443Z,1164.00
2023-02-20T10:56:49.396Z,1153.00
2023-02-20T10:57:49.298Z,1153.00
2023-02-20T10:58:49.227Z,1155.00
2023-02-20T10:59:50.860Z,1150.00
2023-02-20T11:00:49.124Z,1159.00
2023-02-20T11:01:48.986Z,1156.00
2023-02-20T11:02:48.837Z,1149.00
2023-02-20T11:03:48.743Z,1150.00
2023-02-20T11:04:49.366Z,1142.00
2023-02-20T11:05:49.249Z,1147.00
2023-02-20T11:06:48.505Z,1150.00
2023-02-20T11:07:48.344Z,1140.00
2023-02-20T11:08:48.224Z,1152.00
2023-02-20T11:09:48.135Z,1150.00
2023-02-20T11:10:48.028Z,1132.00
2023-02-20T11:11:47.929Z,1133.00
2023-02-20T11:12:48.746Z,1138.00
2023-02-20T11:13:47.722Z,1130.00
2023-02-20T11:14:48.337Z,1131.00
2023-02-20T11:15:48.380Z,1141.00
2023-02-20T11:16:47.451Z,1132.00
2023-02-20T11:17:48.349Z,1133.00
2023-02-20T11:18:47.254Z,1134.00
2023-02-20T11:19:47.255Z,1134.00
2023-02-20T11:20:47.052Z,1123.00
2023-02-20T11:21:46.965Z,1122.00
2023-02-20T11:22:46.870Z,1125.00
2023-02-20T11:23:46.754Z,1114.00
2023-02-20T11:24:46.655Z,1119.00
2023-02-20T11:25:46.541Z,1127.00
2023-02-20T11:26:46.453Z,1121.00
2023-02-20T11:27:46.430Z,1114.00
2023-02-20T11:28:46.383Z,1120.00
2023-02-20T11:29:46.334Z,1110.00
2023-02-20T11:30:46.427Z,1112.00
2023-02-20T11:31:46.339Z,1109.00
2023-02-20T11:32:46.251Z,1111.00
2023-02-20T11:33:46.201Z,1107.00
2023-02-20T11:34:46.316Z,1103.00
2023-02-20T11:35:46.119Z,1117.00
2023-02-20T11:36:46.092Z,1109.00
2023-02-20T11:37:54.809Z,1105.00
2023-02-20T11:38:46.951Z,1106.00
2023-02-20T11:39:45.856Z,1106.00
2023-02-20T11:40:45.756Z,1107.00
2023-02-20T11:41:45.660Z,1109.00
2023-02-20T11:42:45.639Z,1104.00
2023-02-20T11:43:59.263Z,1105.00
2023-02-20T11:44:46.361Z,1105.00
2023-02-20T11:45:45.265Z,1106.00
2023-02-20T11:46:45.197Z,1105.00
2023-02-20T11:47:45.086Z,1093.00
2023-02-20T11:48:44.973Z,1095.00
2023-02-20T11:49:44.881Z,1093.00
2023-02-20T11:50:44.784Z,1079.00
2023-02-20T11:51:44.701Z,1082.00
2023-02-20T11:52:44.675Z,1087.00
2023-02-20T11:53:44.653Z,1082.00
2023-02-20T11:54:44.624Z,1084.00
2023-02-20T11:55:54.969Z,1073.00
2023-02-20T11:56:45.479Z,1074.00
2023-02-20T11:57:44.387Z,1075.00
2023-02-20T11:58:44.283Z,1074.00
2023-02-20T11:59:44.204Z,1077.00
2023-02-20T12:00:44.107Z,1065.00
2023-02-20T12:01:52.451Z,1074.00
2023-02-20T12:02:44.945Z,1075.00
2023-02-20T12:03:43.852Z,1076.00
2023-02-20T12:04:43.735Z,1073.00
2023-02-20T12:05:43.744Z,1075.00
2023-02-20T12:06:43.551Z,1073.00
2023-02-20T12:07:43.460Z,1062.00
2023-02-20T12:08:43.433Z,1070.00
2023-02-20T12:09:43.269Z,1066.00
2023-02-20T12:10:43.186Z,1061.00
2023-02-20T12:11:43.085Z,1061.00
2023-02-20T12:12:42.996Z,1061.00
2023-02-20T12:13:42.908Z,1064.00
2023-02-20T12:14:42.825Z,1055.00
2023-02-20T12:15:42.734Z,1061.00
2023-02-20T12:16:42.635Z,1065.00
2023-02-20T12:17:42.540Z,1025.00
2023-02-20T12:18:42.438Z,1035.00
2023-02-20T12:19:42.346Z,1042.00
2023-02-20T12:20:42.257Z,1035.00
2023-02-20T12:21:42.855Z,1033.00
2023-02-20T12:22:42.069Z,1038.00
2023-02-20T12:23:41.993Z,1050.00
2023-02-20T12:24:41.909Z,1052.00
2023-02-20T12:25:41.829Z,1045.00
2023-02-20T12:26:41.733Z,1044.00
2023-02-20T12:27:41.658Z,1045.00
2023-02-20T12:28:41.585Z,1040.00
2023-02-20T12:29:41.509Z,1040.00
2023-02-20T12:30:41.461Z,1047.00
2023-02-20T12:31:41.417Z,1067.00
2023-02-20T12:32:41.265Z,1049.00
2023-02-20T12:33:41.187Z,1061.00
2023-02-20T12:34:41.111Z,1055.00
2023-02-20T12:35:41.022Z,1065.00
2023-02-20T12:36:40.949Z,1046.00
2023-02-20T12:37:40.863Z,1057.00
2023-02-20T12:38:40.792Z,1064.00
2023-02-20T12:39:40.716Z,1065.00
2023-02-20T12:40:40.634Z,1064.00
2023-02-20T12:41:40.570Z,1063.00
2023-02-20T12:42:40.474Z,1074.00
2023-02-20T12:43:40.404Z,1057.00
2023-02-20T12:44:40.299Z,1064.00
2023-02-20T12:45:40.231Z,1059.00
2023-02-20T12:46:40.215Z,1050.00
2023-02-20T12:47:40.073Z,1052.00
2023-02-20T12:48:39.994Z,1055.00
2023-02-20T12:49:39.918Z,1067.00
2023-02-20T12:50:39.845Z,1047.00
2023-02-20T12:51:39.762Z,1061.00
2023-02-20T12:52:39.692Z,1072.00
2023-02-20T13:00:39.353Z,1077.00
2023-02-20T13:01:40.557Z,1068.00
2023-02-20T13:02:42.634Z,1068.00
2023-02-20T13:03:38.828Z,1068.00
2023-02-20T13:05:38.615Z,1070.00
2023-02-20T13:07:38.418Z,1076.00
2023-02-20T13:08:38.425Z,1061.00
2023-02-20T13:09:38.224Z,1075.00
2023-02-20T13:10:38.204Z,1061.00
2023-02-20T13:11:38.077Z,1077.00
2023-02-20T13:12:37.941Z,1054.00
2023-02-20T13:13:37.845Z,1073.00
2023-02-20T13:14:37.752Z,1067.00
2023-02-20T13:15:37.662Z,1071.00
2023-02-20T13:16:37.616Z,1061.00
2023-02-20T13:17:37.492Z,1061.00
2023-02-20T13:18:37.389Z,1068.00
2023-02-20T13:19:37.307Z,1046.00
2023-02-20T13:20:37.206Z,1059.00
2023-02-20T13:21:37.120Z,1064.00
2023-02-20T13:22:37.033Z,1058.00
2023-02-20T13:23:36.943Z,1059.00
2023-02-20T13:24:36.835Z,1048.00
2023-02-20T13:25:36.749Z,1051.00
2023-02-20T13:26:36.665Z,1045.00
2023-02-20T13:27:36.565Z,1046.00
2023-02-20T13:28:36.469Z,1053.00
2023-02-20T13:29:36.369Z,1047.00
2023-02-20T13:30:36.346Z,1046.00
2023-02-20T14:14:32.835Z,1002.00
2023-02-20T14:42:31.205Z,965.00
2023-02-20T15:38:28.000Z,912.00
2023-02-20T15:52:27.367Z,910.00
2023-02-20T15:53:27.322Z,908.00
2023-02-20T15:54:27.313Z,895.00
2023-02-20T15:55:27.252Z,906.00
2023-02-20T15:56:27.210Z,887.00
2023-02-20T15:57:27.155Z,894.00
2023-02-20T15:58:30.477Z,897.00
2023-02-20T16:00:26.944Z,898.00
2023-02-20T16:01:26.960Z,898.00
2023-02-20T16:02:26.846Z,904.00
2023-02-20T16:03:26.685Z,894.00
2023-02-20T16:04:26.611Z,890.00
2023-02-20T16:05:26.510Z,889.00
2023-02-20T16:06:26.441Z,882.00
2023-02-20T16:07:26.398Z,873.00
2023-02-20T16:08:26.263Z,880.00
2023-02-20T16:31:25.422Z,870.00
2023-02-20T17:30:23.912Z,826.00
2023-02-20T17:59:22.574Z,811.00
2023-02-20T18:00:22.521Z,810.00
2023-02-20T18:01:22.542Z,794.00
2023-02-20T19:59:17.164Z,749.00
2023-02-20T20:00:17.106Z,755.00
2023-02-20T20:01:17.103Z,736.00
2023-02-20T20:02:17.064Z,745.00
2023-02-20T20:03:16.975Z,754.00
2023-02-20T20:04:17.094Z,752.00
2023-02-20T20:05:16.875Z,739.00
2023-02-20T20:06:16.823Z,753.00
2023-02-20T20:07:16.779Z,740.00
2023-02-20T20:08:16.720Z,728.00
2023-02-20T20:09:20.886Z,746.00
2023-02-20T20:11:16.527Z,747.00
2023-02-20T20:12:16.440Z,750.00
2023-02-20T20:13:16.371Z,738.00
2023-02-20T20:14:16.288Z,738.00
2023-02-20T22:34:11.524Z,648.00
2023-02-20T22:35:12.445Z,654.00
2023-02-20T22:36:11.459Z,650.00
2023-02-20T22:37:11.429Z,648.00
2023-02-20T22:38:11.405Z,648.00
2023-02-20T22:39:11.368Z,653.00
2023-02-20T22:40:11.348Z,646.00
2023-02-20T22:41:11.555Z,653.00
2023-02-20T22:42:11.272Z,648.00
2023-02-20T22:43:11.250Z,653.00
2023-02-20T22:44:11.228Z,647.00
2023-02-20T22:45:11.187Z,649.00
2023-02-20T22:46:11.276Z,649.00
2023-02-20T22:47:11.119Z,647.00
2023-02-20T22:48:11.111Z,647.00
2023-02-20T22:49:11.069Z,650.00
2023-02-20T22:50:11.038Z,648.00
2023-02-20T22:51:11.026Z,648.00
2023-02-20T22:52:10.988Z,652.00
2023-02-20T22:53:10.962Z,645.00
2023-02-20T22:54:11.659Z,646.00
2023-02-20T22:55:10.975Z,649.00
2023-02-20T22:56:10.878Z,651.00
2023-02-20T22:57:10.842Z,645.00
2023-02-20T22:58:10.845Z,649.00
2023-02-20T22:59:10.773Z,646.00
2023-02-20T23:00:10.742Z,644.00
2023-02-20T23:01:10.764Z,648.00
2023-02-20T23:02:10.692Z,648.00
2023-02-20T23:03:10.681Z,643.00
2023-02-20T23:04:10.668Z,638.00
2023-02-20T23:05:10.663Z,644.00
2023-02-20T23:06:17.878Z,648.00
2023-02-20T23:07:11.561Z,648.00
2023-02-20T23:08:10.489Z,648.00
2023-02-20T23:09:10.413Z,649.00
2023-02-20T23:10:10.331Z,648.00
2023-02-20T23:11:10.250Z,648.00
2023-02-20T23:12:10.181Z,645.00
2023-02-20T23:13:10.095Z,640.00
2023-02-20T23:14:10.031Z,643.00
2023-02-20T23:15:09.947Z,648.00
2023-02-20T23:16:09.910Z,646.00
2023-02-20T23:17:09.803Z,644.00
2023-02-20T23:18:09.772Z,646.00
2023-02-20T23:19:09.740Z,646.00
2023-02-20T23:20:09.709Z,648.00
2023-02-20T23:21:09.698Z,637.00
2023-02-20T23:22:09.680Z,644.00
2023-02-20T23:23:09.665Z,647.00
2023-02-20T23:24:09.625Z,648.00
2023-02-20T23:25:09.595Z,645.00
2023-02-20T23:26:09.575Z,642.00
2023-02-20T23:27:09.549Z,643.00
2023-02-20T23:28:09.541Z,642.00
2023-02-20T23:29:10.130Z,647.00
2023-02-20T23:30:09.563Z,647.00
2023-02-20T23:31:09.484Z,650.00
2023-02-20T23:32:09.591Z,644.00
2023-02-20T23:33:09.413Z,645.00
2023-02-20T23:34:09.390Z,644.00
2023-02-20T23:35:09.363Z,647.00
2023-02-20T23:36:09.323Z,643.00
2023-02-20T23:37:09.306Z,645.00
2023-02-20T23:38:09.280Z,638.00
2023-02-20T23:39:09.239Z,643.00
2023-02-20T23:40:09.201Z,641.00
2023-02-20T23:41:09.174Z,644.00
2023-02-20T23:42:09.128Z,648.00
2023-02-20T23:43:09.097Z,643.00
2023-02-20T23:44:09.078Z,644.00
2023-02-20T23:45:09.055Z,645.00
2023-02-20T23:46:09.066Z,644.00
2023-02-20T23:47:09.006Z,645.00
2023-02-20T23:48:08.971Z,641.00
2023-02-20T23:49:08.929Z,645.00
2023-02-20T23:50:08.914Z,643.00
